createdAt,value
2022-11-02T00:00:40.960Z,69.65
2022-11-02T00:03:07.820Z,69.54
2022-11-02T00:05:34.501Z,69.52
2022-11-02T00:08:00.841Z,69.33
2022-11-02T00:10:27.307Z,69.34
2022-11-02T00:12:53.613Z,69.74
2022-11-02T00:15:19.957Z,69.68
2022-11-02T00:17:48.745Z,70.00
2022-11-02T00:20:18.179Z,70.17
2022-11-02T00:22:46.717Z,70.43
2022-11-02T00:25:16.321Z,71.14
2022-11-02T00:27:43.264Z,70.80
2022-11-02T00:30:10.568Z,70.83
2022-11-02T00:32:36.894Z,70.98
2022-11-02T00:35:03.315Z,70.60
2022-11-02T00:37:29.731Z,70.61
2022-11-02T00:39:56.089Z,70.50
2022-11-02T00:42:22.434Z,70.91
2022-11-02T00:44:48.736Z,70.52
2022-11-02T00:47:15.064Z,70.34
2022-11-02T00:49:41.692Z,70.21
2022-11-02T00:52:08.056Z,70.38
2022-11-02T00:54:34.368Z,70.01
2022-11-02T00:59:28.106Z,69.76
2022-11-02T01:01:54.547Z,69.26
2022-11-02T01:04:21.202Z,69.64
2022-11-02T01:06:47.593Z,69.70
2022-11-02T01:09:15.158Z,69.74
2022-11-02T01:11:41.749Z,69.55
2022-11-02T01:14:09.022Z,69.77
2022-11-02T01:16:35.596Z,70.04
2022-11-02T01:19:01.975Z,69.80
2022-11-02T01:21:28.321Z,70.33
2022-11-02T01:23:55.505Z,69.99
2022-11-02T01:26:21.812Z,70.09
2022-11-02T01:28:48.135Z,70.17
2022-11-02T01:31:15.652Z,70.42
2022-11-02T01:33:45.845Z,70.49
2022-11-02T01:36:14.947Z,71.33
2022-11-02T01:38:41.400Z,71.59
2022-11-02T01:41:08.092Z,71.96
2022-11-02T01:43:35.911Z,72.29
2022-11-02T01:46:12.433Z,71.94
2022-11-02T01:48:47.729Z,72.22
2022-11-02T01:51:20.942Z,72.78
2022-11-02T01:53:50.274Z,74.60
2022-11-02T01:56:20.505Z,75.73
2022-11-02T01:58:51.893Z,76.62
2022-11-02T02:01:18.252Z,78.12
2022-11-02T02:03:45.877Z,78.85
2022-11-02T02:06:15.051Z,78.43
2022-11-02T02:08:48.452Z,78.55
2022-11-02T02:11:43.966Z,79.18
2022-11-02T02:14:14.805Z,79.13
2022-11-02T02:17:18.636Z,78.77
2022-11-02T02:19:58.278Z,78.66
2022-11-02T02:22:45.561Z,78.93
2022-11-02T02:25:17.993Z,79.15
2022-11-02T02:27:56.159Z,78.87
2022-11-02T02:30:22.760Z,78.97
2022-11-02T02:32:55.836Z,78.53
2022-11-02T02:35:35.446Z,78.60
2022-11-02T02:38:05.157Z,78.80
2022-11-02T02:40:37.168Z,79.33
2022-11-02T02:43:25.956Z,78.53
2022-11-02T02:45:58.481Z,78.55
2022-11-02T02:48:26.753Z,78.77
2022-11-02T02:51:02.315Z,79.17
2022-11-02T02:53:34.083Z,79.29
2022-11-02T02:56:02.146Z,79.56
2022-11-02T02:58:39.516Z,79.79
2022-11-02T03:01:07.964Z,80.04
2022-11-02T03:03:35.141Z,80.64
2022-11-02T03:06:17.731Z,80.11
2022-11-02T03:08:51.952Z,80.48
2022-11-02T03:11:20.513Z,81.12
2022-11-02T03:14:00.441Z,81.37
2022-11-02T03:16:51.157Z,81.32
2022-11-02T03:19:23.296Z,80.93
2022-11-02T03:22:02.379Z,80.52
2022-11-02T03:24:46.188Z,80.04
2022-11-02T03:27:22.329Z,80.29
2022-11-02T03:30:00.435Z,80.51
2022-11-02T03:32:31.392Z,79.74
2022-11-02T03:35:02.727Z,79.35
2022-11-02T03:37:37.821Z,79.30
2022-11-02T03:40:16.788Z,78.49
2022-11-02T03:42:44.082Z,78.84
2022-11-02T03:45:14.797Z,78.78
2022-11-02T03:47:45.973Z,79.05
2022-11-02T03:50:15.058Z,78.64
2022-11-02T03:52:45.107Z,78.84
2022-11-02T03:55:28.387Z,78.50
2022-11-02T03:57:54.901Z,78.47
2022-11-02T04:00:24.233Z,78.65
2022-11-02T04:02:55.867Z,78.73
2022-11-02T04:05:36.105Z,77.99
2022-11-02T04:08:03.633Z,78.24
2022-11-02T04:10:30.321Z,77.93
2022-11-02T04:12:56.633Z,77.70
2022-11-02T04:15:22.924Z,78.17
2022-11-02T04:17:49.260Z,78.04
2022-11-02T04:20:15.753Z,78.04
2022-11-02T04:22:42.074Z,78.07
2022-11-02T04:25:13.864Z,78.29
2022-11-02T04:27:40.282Z,78.16
2022-11-02T04:30:07.297Z,77.68
2022-11-02T04:32:41.661Z,77.37
2022-11-02T04:35:08.645Z,77.66
2022-11-02T04:37:42.105Z,77.53
2022-11-02T04:40:08.915Z,78.08
2022-11-02T04:42:35.217Z,78.11
2022-11-02T04:45:01.540Z,77.71
2022-11-02T04:47:27.830Z,77.47
2022-11-02T04:49:54.140Z,77.47
2022-11-02T04:52:20.486Z,77.27
2022-11-02T04:54:46.799Z,77.49
2022-11-02T04:57:13.109Z,77.13
2022-11-02T04:59:39.419Z,77.08
2022-11-02T05:02:05.891Z,77.37
2022-11-02T05:04:32.308Z,77.15
2022-11-02T05:07:01.390Z,76.88
2022-11-02T05:09:28.226Z,77.04
2022-11-02T05:11:54.520Z,77.41
2022-11-02T05:14:20.829Z,76.84
2022-11-02T05:16:47.150Z,76.69
2022-11-02T05:19:13.469Z,76.91
2022-11-02T05:21:39.806Z,77.21
2022-11-02T05:24:06.716Z,77.13
2022-11-02T05:26:33.109Z,77.03
2022-11-02T05:28:59.441Z,77.08
2022-11-02T05:31:25.748Z,76.62
2022-11-02T05:33:52.071Z,76.79
2022-11-02T05:36:18.369Z,76.87
2022-11-02T05:38:44.701Z,76.47
2022-11-02T05:41:11.284Z,75.98
2022-11-02T05:43:37.799Z,75.82
2022-11-02T05:46:04.918Z,75.69
2022-11-02T05:48:32.543Z,75.73
2022-11-02T05:51:00.875Z,74.99
2022-11-02T05:53:28.706Z,74.92
2022-11-02T05:55:59.276Z,74.96
2022-11-02T05:58:26.514Z,73.62
2022-11-02T06:00:53.340Z,73.66
2022-11-02T06:03:20.440Z,73.53
2022-11-02T06:05:46.846Z,73.13
2022-11-02T06:08:13.204Z,73.05
2022-11-02T06:10:39.525Z,73.79
2022-11-02T06:13:05.967Z,73.61
2022-11-02T06:15:32.468Z,73.66
2022-11-02T06:17:58.815Z,73.91
2022-11-02T06:20:25.164Z,74.09
2022-11-02T06:22:51.482Z,73.88
2022-11-02T06:25:17.908Z,74.07
2022-11-02T06:27:50.888Z,74.21
2022-11-02T06:30:17.269Z,73.92
2022-11-02T06:32:51.519Z,74.16
2022-11-02T06:35:19.729Z,74.46
2022-11-02T06:37:46.760Z,74.32
2022-11-02T06:40:14.552Z,74.70
2022-11-02T06:42:45.164Z,73.78
2022-11-02T06:47:56.803Z,73.76
2022-11-02T06:50:23.358Z,73.73
2022-11-02T06:52:49.677Z,73.12
2022-11-02T06:55:16.782Z,72.57
2022-11-02T06:57:43.682Z,72.24
2022-11-02T07:00:15.423Z,72.31
2022-11-02T07:02:44.969Z,72.12
2022-11-02T07:05:11.947Z,71.87
2022-11-02T07:07:38.433Z,71.39
2022-11-02T07:10:05.390Z,70.90
2022-11-02T07:12:32.744Z,70.75
2022-11-02T07:14:59.072Z,70.83
2022-11-02T07:17:31.035Z,70.74
2022-11-02T07:19:58.426Z,70.54
2022-11-02T07:22:24.738Z,70.09
2022-11-02T07:24:51.024Z,70.59
2022-11-02T07:27:17.347Z,70.24
2022-11-02T07:29:43.633Z,69.92
2022-11-02T07:32:09.969Z,69.50
2022-11-02T07:34:36.310Z,69.52
2022-11-02T07:37:02.633Z,69.43
2022-11-02T07:39:28.925Z,69.01
2022-11-02T07:41:55.297Z,68.77
2022-11-02T07:44:21.682Z,68.96
2022-11-02T07:46:47.997Z,68.94
2022-11-02T07:49:20.222Z,68.89
2022-11-02T07:51:47.729Z,68.97
2022-11-02T07:54:14.073Z,69.38
2022-11-02T07:56:40.492Z,68.82
2022-11-02T07:59:06.828Z,68.79
2022-11-02T08:01:33.165Z,68.60
2022-11-02T08:03:59.513Z,68.09
2022-11-02T08:06:25.921Z,67.75
2022-11-02T08:08:52.212Z,67.03
2022-11-02T08:11:18.505Z,67.25
2022-11-02T08:13:44.837Z,66.50
2022-11-02T08:16:11.197Z,65.90
2022-11-02T08:18:37.496Z,65.80
2022-11-02T08:21:03.982Z,65.12
2022-11-02T08:23:30.291Z,64.84
2022-11-02T08:25:58.991Z,65.07
2022-11-02T08:28:28.486Z,64.76
2022-11-02T08:30:54.788Z,64.95
2022-11-02T08:33:21.478Z,64.70
2022-11-02T08:35:48.505Z,64.34
2022-11-02T08:38:15.036Z,64.41
2022-11-02T08:40:41.950Z,63.72
2022-11-02T08:43:13.518Z,62.66
2022-11-02T08:46:13.235Z,63.18
2022-11-02T08:48:28.707Z,63.18
2022-11-02T08:50:55.097Z,63.34
2022-11-02T08:53:21.741Z,63.80
2022-11-02T08:55:48.080Z,63.25
2022-11-02T08:58:14.432Z,63.43
2022-11-02T09:00:40.739Z,62.61
2022-11-02T09:03:09.117Z,62.46
2022-11-02T09:05:37.720Z,62.86
2022-11-02T09:08:11.213Z,62.73
2022-11-02T09:10:37.866Z,62.34
2022-11-02T09:13:07.179Z,62.01
2022-11-02T09:15:36.189Z,61.72
2022-11-02T09:18:03.582Z,61.11
2022-11-02T09:20:30.519Z,62.65
2022-11-02T09:22:56.867Z,61.25
2022-11-02T09:25:23.533Z,60.82
2022-11-02T09:27:57.483Z,60.44
2022-11-02T09:30:24.963Z,60.99
2022-11-02T09:32:59.503Z,59.92
2022-11-02T09:35:28.315Z,60.35
2022-11-02T09:37:54.749Z,59.53
2022-11-02T09:40:23.665Z,59.36
2022-11-02T09:43:05.461Z,60.23
2022-11-02T09:45:36.681Z,58.62
2022-11-02T09:48:24.914Z,58.21
2022-11-02T09:51:28.396Z,58.01
2022-11-02T09:54:22.514Z,58.97
2022-11-02T09:56:51.332Z,58.26
2022-11-02T09:59:24.397Z,57.62
2022-11-02T10:02:24.490Z,56.97
2022-11-02T10:05:24.677Z,58.34
2022-11-02T10:07:56.860Z,56.49
2022-11-02T10:10:23.127Z,57.02
2022-11-02T10:13:28.071Z,57.61
2022-11-02T10:16:02.925Z,57.81
2022-11-02T10:18:29.870Z,57.69
2022-11-02T10:20:59.298Z,58.05
2022-11-02T10:23:47.470Z,58.93
2022-11-02T10:26:19.447Z,58.64
2022-11-02T10:28:49.163Z,57.96
2022-11-02T10:31:33.599Z,58.32
2022-11-02T10:34:18.016Z,57.99
2022-11-02T10:36:54.593Z,58.24
2022-11-02T10:39:42.257Z,56.60
2022-11-02T10:42:39.618Z,55.29
2022-11-02T10:45:20.412Z,55.20
2022-11-02T10:48:03.162Z,54.87
2022-11-02T10:50:29.730Z,54.87
2022-11-02T10:53:20.435Z,55.43
2022-11-02T10:55:54.931Z,55.84
2022-11-02T10:58:23.022Z,55.93
2022-11-02T11:00:49.512Z,56.55
2022-11-02T11:03:17.753Z,56.42
2022-11-02T11:05:55.310Z,55.65
2022-11-02T11:08:29.090Z,54.51
2022-11-02T11:10:55.476Z,53.61
2022-11-02T11:16:14.399Z,53.15
2022-11-02T11:21:40.446Z,54.38
2022-11-02T11:24:20.588Z,53.10
2022-11-02T11:27:03.646Z,53.17
2022-11-02T11:29:32.721Z,53.87
2022-11-02T11:32:01.166Z,53.34
2022-11-02T11:34:30.234Z,53.22
2022-11-02T11:37:26.070Z,52.69
2022-11-02T11:39:57.459Z,51.98
2022-11-02T11:42:27.115Z,52.40
2022-11-02T11:45:02.866Z,53.14
2022-11-02T11:47:34.180Z,52.10
2022-11-02T11:50:13.522Z,51.89
2022-11-02T11:52:44.054Z,52.46
2022-11-02T11:55:25.148Z,52.62
2022-11-02T11:58:33.076Z,52.38
2022-11-02T12:01:09.325Z,53.00
2022-11-02T12:04:00.276Z,53.75
2022-11-02T12:06:35.025Z,53.57
2022-11-02T12:09:40.930Z,53.13
2022-11-02T12:12:13.983Z,51.96
2022-11-02T12:15:06.970Z,50.78
2022-11-02T12:17:45.700Z,51.74
2022-11-02T12:20:37.866Z,50.63
2022-11-02T12:23:13.358Z,51.90
2022-11-02T12:26:04.831Z,52.35
2022-11-02T12:29:01.184Z,52.24
2022-11-02T12:31:38.392Z,52.97
2022-11-02T12:34:57.636Z,54.02
2022-11-02T12:37:48.520Z,53.37
2022-11-02T12:40:20.950Z,52.89
2022-11-02T12:43:09.134Z,53.13
2022-11-02T12:45:49.901Z,53.49
2022-11-02T12:48:29.271Z,53.19
2022-11-02T12:51:08.094Z,52.46
2022-11-02T12:53:49.253Z,52.31
2022-11-02T12:56:23.097Z,51.54
2022-11-02T12:58:49.719Z,51.94
2022-11-02T13:01:20.558Z,53.14
2022-11-02T13:03:53.189Z,52.11
2022-11-02T13:06:24.772Z,51.30
2022-11-02T13:09:00.461Z,52.47
2022-11-02T13:11:36.746Z,51.38
2022-11-02T13:14:14.339Z,50.64
2022-11-02T13:16:54.724Z,52.16
2022-11-02T13:19:49.180Z,50.88
2022-11-02T13:22:18.224Z,51.51
2022-11-02T13:24:50.368Z,51.79
2022-11-02T13:27:38.825Z,51.48
2022-11-02T13:30:14.897Z,49.09
2022-11-02T13:33:16.878Z,49.25
2022-11-02T13:35:43.255Z,49.47
2022-11-02T13:38:12.689Z,49.18
2022-11-02T13:40:49.538Z,48.90
2022-11-02T13:43:24.997Z,50.06
2022-11-02T13:46:06.653Z,48.74
2022-11-02T13:48:51.982Z,48.75
2022-11-02T13:51:18.247Z,48.89
2022-11-02T13:53:57.847Z,48.70
2022-11-02T13:56:27.438Z,49.61
2022-11-02T13:58:57.964Z,49.82
2022-11-02T14:01:26.252Z,50.30
2022-11-02T14:04:02.560Z,49.85
2022-11-02T14:06:31.730Z,49.94
2022-11-02T14:09:00.975Z,50.55
2022-11-02T14:11:36.639Z,50.48
2022-11-02T14:14:02.943Z,50.97
2022-11-02T14:16:48.338Z,51.58
2022-11-02T14:19:20.391Z,50.95
2022-11-02T14:21:59.105Z,51.83
2022-11-02T14:24:34.633Z,51.84
2022-11-02T14:27:22.346Z,52.14
2022-11-02T14:29:53.940Z,52.46
2022-11-02T14:32:20.212Z,53.11
2022-11-02T14:35:13.406Z,53.13
2022-11-02T14:38:16.505Z,54.02
2022-11-02T14:40:48.950Z,54.02
2022-11-02T14:43:43.183Z,54.67
2022-11-02T14:46:31.229Z,55.28
2022-11-02T14:48:59.812Z,55.67
2022-11-02T14:51:29.938Z,55.90
2022-11-02T14:54:03.101Z,55.36
2022-11-02T14:57:04.618Z,55.50
2022-11-02T14:59:38.427Z,56.12
2022-11-02T15:02:13.123Z,55.77
2022-11-02T15:04:48.605Z,55.46
2022-11-02T15:07:22.445Z,54.75
2022-11-02T15:09:59.601Z,54.19
2022-11-02T15:12:38.376Z,54.57
2022-11-02T15:15:04.629Z,54.48
2022-11-02T15:17:30.891Z,55.48
2022-11-02T15:20:15.378Z,56.62
2022-11-02T15:22:45.529Z,56.35
2022-11-02T15:25:24.038Z,55.64
2022-11-02T15:27:52.345Z,56.24
2022-11-02T15:30:28.013Z,56.77
2022-11-02T15:33:05.567Z,57.19
2022-11-02T15:35:38.033Z,58.23
2022-11-02T15:38:28.079Z,59.20
2022-11-02T15:41:07.788Z,59.03
2022-11-02T15:43:47.870Z,59.27
2022-11-02T15:46:52.308Z,59.69
2022-11-02T15:49:30.550Z,59.61
2022-11-02T15:52:12.208Z,59.97
2022-11-02T15:55:03.462Z,60.43
2022-11-02T15:57:51.593Z,61.32
2022-11-02T16:00:22.149Z,61.64
2022-11-02T16:02:52.669Z,61.98
2022-11-02T16:05:22.875Z,62.40
2022-11-02T16:08:10.452Z,62.66
2022-11-02T16:10:37.515Z,63.42
2022-11-02T16:13:10.013Z,63.86
2022-11-02T16:15:36.681Z,64.21
2022-11-02T16:18:03.379Z,64.70
2022-11-02T16:20:34.511Z,64.97
2022-11-02T16:23:03.339Z,65.38
2022-11-02T16:25:36.862Z,65.62
2022-11-02T16:28:25.888Z,66.04
2022-11-02T16:31:10.073Z,66.48
2022-11-02T16:33:44.078Z,66.86
2022-11-02T16:36:15.358Z,66.90
2022-11-02T16:38:52.296Z,67.47
2022-11-02T16:41:19.025Z,68.00
2022-11-02T16:43:46.209Z,67.99
2022-11-02T16:46:15.518Z,68.18
2022-11-02T16:49:01.428Z,68.54
2022-11-02T16:51:27.780Z,68.39
2022-11-02T16:53:54.165Z,68.98
2022-11-02T16:56:27.245Z,68.80
2022-11-02T16:59:02.733Z,69.44
2022-11-02T17:01:38.552Z,69.88
2022-11-02T17:04:23.626Z,69.63
2022-11-02T17:06:53.874Z,69.88
2022-11-02T17:09:31.142Z,69.68
2022-11-02T17:12:15.843Z,69.82
2022-11-02T17:14:44.570Z,70.02
2022-11-02T17:17:40.186Z,70.17
2022-11-02T17:20:12.378Z,70.72
2022-11-02T17:22:47.973Z,70.88
2022-11-02T17:25:30.422Z,71.08
2022-11-02T17:28:02.908Z,71.23
2022-11-02T17:30:29.414Z,71.57
2022-11-02T17:32:57.182Z,71.85
2022-11-02T17:35:27.256Z,71.67
2022-11-02T17:37:54.000Z,72.09
2022-11-02T17:40:20.404Z,72.29
2022-11-02T17:42:46.742Z,72.60
2022-11-02T17:45:24.555Z,72.82
2022-11-02T17:47:51.759Z,73.07
2022-11-02T17:50:18.832Z,72.93
2022-11-02T17:52:45.570Z,72.82
2022-11-02T17:55:17.844Z,73.29
2022-11-02T17:57:44.938Z,73.34
2022-11-02T18:00:11.854Z,73.24
2022-11-02T18:02:40.376Z,73.88
2022-11-02T18:05:29.931Z,73.96
2022-11-02T18:07:57.763Z,74.49
2022-11-02T18:10:37.110Z,74.46
2022-11-02T18:13:04.403Z,74.59
2022-11-02T18:15:33.084Z,74.79
2022-11-02T18:17:59.675Z,75.13
2022-11-02T18:20:27.849Z,75.16
2022-11-02T18:22:55.499Z,75.34
2022-11-02T18:27:53.252Z,75.63
2022-11-02T18:30:19.677Z,76.03
2022-11-02T18:32:46.833Z,76.13
2022-11-02T18:35:17.185Z,76.26
2022-11-02T18:37:44.407Z,76.73
2022-11-02T18:40:13.336Z,76.80
2022-11-02T18:42:42.432Z,77.17
2022-11-02T18:45:10.591Z,77.27
2022-11-02T18:47:37.309Z,77.55
2022-11-02T18:50:05.876Z,77.58
2022-11-02T18:52:32.842Z,77.33
2022-11-02T18:54:59.790Z,77.49
2022-11-02T18:57:28.182Z,77.22
2022-11-02T18:59:54.815Z,77.28
2022-11-02T19:02:21.193Z,76.93
2022-11-02T19:04:47.553Z,76.38
2022-11-02T19:07:16.280Z,76.14
2022-11-02T19:09:42.965Z,75.69
2022-11-02T19:12:13.397Z,75.31
2022-11-02T19:14:44.780Z,74.81
2022-11-02T19:17:12.909Z,74.31
2022-11-02T19:19:39.645Z,73.69
2022-11-02T19:22:06.492Z,72.93
2022-11-02T19:24:33.194Z,72.76
2022-11-02T19:26:59.620Z,72.37
2022-11-02T19:29:25.922Z,71.80
2022-11-02T19:31:52.248Z,71.52
2022-11-02T19:34:18.552Z,71.28
2022-11-02T19:36:44.870Z,71.06
2022-11-02T19:39:11.311Z,71.09
2022-11-02T19:41:38.528Z,71.13
2022-11-02T19:44:05.434Z,71.01
2022-11-02T19:46:31.891Z,71.06
2022-11-02T19:48:58.603Z,70.52
2022-11-02T19:51:27.247Z,71.06
2022-11-02T19:53:56.139Z,71.70
2022-11-02T19:56:22.824Z,71.50
2022-11-02T19:58:51.177Z,71.59
2022-11-02T20:01:24.341Z,71.49
2022-11-02T20:03:51.749Z,71.50
2022-11-02T20:06:21.159Z,71.63
2022-11-02T20:08:54.486Z,71.58
2022-11-02T20:11:21.589Z,71.94
2022-11-02T20:13:48.773Z,72.08
2022-11-02T20:16:17.862Z,72.01
2022-11-02T20:18:45.750Z,71.79
2022-11-02T20:21:15.026Z,71.37
2022-11-02T20:23:42.562Z,71.63
2022-11-02T20:26:14.622Z,71.72
2022-11-02T20:28:43.443Z,71.64
2022-11-02T20:31:13.613Z,71.90
2022-11-02T20:33:40.463Z,71.90
2022-11-02T20:36:07.968Z,71.97
2022-11-02T20:38:34.770Z,71.88
2022-11-02T20:41:13.256Z,72.01
2022-11-02T20:43:41.878Z,71.84
2022-11-02T20:48:56.781Z,71.84
2022-11-02T20:51:23.974Z,71.89
2022-11-02T20:53:50.582Z,71.96
2022-11-02T20:56:17.518Z,71.74
2022-11-02T20:58:48.906Z,71.61
2022-11-02T21:01:17.718Z,72.05
2022-11-02T21:03:44.489Z,72.16
2022-11-02T21:06:10.922Z,72.35
2022-11-02T21:08:37.380Z,72.21
2022-11-02T21:11:04.783Z,72.53
2022-11-02T21:13:31.108Z,72.46
2022-11-02T21:16:03.163Z,72.85
2022-11-02T21:18:32.284Z,73.29
2022-11-02T21:21:24.641Z,73.42
2022-11-02T21:23:50.954Z,73.51
2022-11-02T21:26:17.583Z,73.57
2022-11-02T21:28:44.106Z,73.67
2022-11-02T21:31:12.998Z,73.58
2022-11-02T21:33:39.296Z,73.48
2022-11-02T21:36:05.938Z,73.49
2022-11-02T21:38:32.976Z,73.03
2022-11-02T21:41:01.005Z,72.85
2022-11-02T21:43:28.362Z,72.50
2022-11-02T21:46:00.679Z,71.86
2022-11-02T21:48:32.444Z,71.83
2022-11-02T21:51:12.637Z,71.73
2022-11-02T21:53:42.577Z,71.81
2022-11-02T21:56:16.375Z,72.05
2022-11-02T21:58:45.906Z,71.77
2022-11-02T22:01:21.637Z,71.76
2022-11-02T22:03:48.680Z,71.95
2022-11-02T22:06:15.306Z,72.27
2022-11-02T22:08:41.971Z,72.19
2022-11-02T22:11:14.012Z,71.34
2022-11-02T22:13:41.623Z,70.79
2022-11-02T22:16:16.715Z,70.90
2022-11-02T22:18:44.486Z,70.85
2022-11-02T22:21:12.526Z,70.90
2022-11-02T22:23:39.701Z,71.02
2022-11-02T22:26:08.410Z,70.15
2022-11-02T22:28:38.305Z,69.95
2022-11-02T22:31:25.854Z,68.78
2022-11-02T22:33:54.571Z,69.10
2022-11-02T22:36:23.348Z,69.64
2022-11-02T22:38:51.167Z,69.67
2022-11-02T22:41:24.635Z,69.59
2022-11-02T22:43:53.637Z,69.53
2022-11-02T22:46:23.420Z,69.97
2022-11-02T22:48:54.837Z,69.51
2022-11-02T22:51:22.904Z,69.06
2022-11-02T22:53:49.819Z,69.44
2022-11-02T22:56:18.120Z,69.03
2022-11-02T22:58:45.925Z,69.33
2022-11-02T23:01:15.351Z,69.43
2022-11-02T23:03:42.830Z,70.31
2022-11-02T23:06:09.994Z,70.89
2022-11-02T23:08:42.138Z,70.54
2022-11-02T23:11:10.298Z,70.56
2022-11-02T23:13:36.620Z,70.72
2022-11-02T23:16:05.238Z,71.26
2022-11-02T23:18:31.567Z,71.42
2022-11-02T23:20:57.869Z,71.68
2022-11-02T23:23:24.174Z,71.81
2022-11-02T23:25:57.401Z,71.77
2022-11-02T23:30:54.860Z,72.59
2022-11-02T23:33:23.024Z,72.82
2022-11-02T23:35:49.725Z,72.54
2022-11-02T23:38:16.057Z,72.77
2022-11-02T23:40:42.394Z,72.99
2022-11-02T23:43:08.766Z,72.99
2022-11-02T23:45:35.469Z,72.51
2022-11-02T23:48:08.744Z,72.59
2022-11-02T23:50:35.814Z,73.10
2022-11-02T23:53:03.450Z,73.05
2022-11-02T23:55:30.014Z,72.82
2022-11-02T23:57:56.336Z,72.96
